Terminal Aerodrome Forecast
Issued by NWS

Home | Current Version | Previous Version | Text Only | Print | Product List | Glossary On
Versions: 1 2 3 4 5 6 7 8 9 10 11 12 13 14 15 16 17
000
FTUS44 KCRP 011740
TAFLRD
TAF
KLRD 011740Z 0118/0218 02015G20KT P6SM SCT060 BKN250
     FM020200 05015KT P6SM SKC
     FM021300 02010KT P6SM FEW200=

USA.gov is the U.S. government's official web portal to all federal, state and local government web resources and services.